Time;durP1;ratioP1;P1;durP2;ratioP2;P2;SDS_P1;SDS_P2;PMS_P1;PMS_P2;Temp;Humidity;BMP_temperature;BMP_pressure;BME280_temperature;BME280_humidity;BME280_pressure;Samples;Min_cycle;Max_cycle;Signal;HPM_P1;HPM_P2
2022/06/25 00:01:40;;;;;;;2.60;2.25;;;;;;;17.30;100.00;100798.91;5009119;28;20474;-66
2022/06/25 00:05:27;;;;;;;3.22;2.25;;;;;;;17.27;100.00;100794.53;5009105;28;20395;-66
2022/06/25 00:06:51;;;;;;;3.42;2.10;;;;;;;17.26;100.00;100797.16;5025445;28;20477;-66
2022/06/25 00:09:16;;;;;;;3.00;2.20;;;;;;;17.25;100.00;100796.25;5015150;28;20024;-66
2022/06/25 00:14:25;;;;;;;2.30;2.08;;;;;;;17.23;100.00;100803.25;5009149;28;20515;-67
2022/06/25 00:16:50;;;;;;;1.98;1.85;;;;;;;17.20;100.00;100803.22;5007866;28;20026;-67
2022/06/25 00:19:16;;;;;;;2.40;1.83;;;;;;;17.17;100.00;100811.06;5009002;28;20537;-66
2022/06/25 00:21:41;;;;;;;2.88;2.42;;;;;;;17.16;100.00;100804.97;5008367;28;20040;-66
2022/06/25 00:24:06;;;;;;;2.15;2.00;;;;;;;17.13;100.00;100807.56;5008431;28;20502;-66
2022/06/25 00:26:31;;;;;;;4.40;2.30;;;;;;;17.12;100.00;100805.84;5008118;28;20045;-66
2022/06/25 00:28:57;;;;;;;4.90;2.30;;;;;;;17.11;100.00;100804.06;5008658;28;20627;-67
2022/06/25 00:31:22;;;;;;;3.97;2.30;;;;;;;17.11;100.00;100803.19;5008081;28;20488;-66
2022/06/25 00:33:47;;;;;;;2.17;1.80;;;;;;;17.07;100.00;100804.03;5007454;28;20033;-67
2022/06/25 00:36:13;;;;;;;3.83;1.90;;;;;;;17.08;100.00;100808.38;5008277;28;20056;-66
2022/06/25 00:38:38;;;;;;;3.40;1.63;;;;;;;17.09;100.00;100807.53;5007617;28;20061;-66
2022/06/25 00:41:03;;;;;;;2.55;1.80;;;;;;;17.05;100.00;100804.03;5007947;28;20025;-66
2022/06/25 00:43:29;;;;;;;2.00;1.75;;;;;;;17.03;100.00;100814.50;5007661;28;20041;-66
2022/06/25 00:45:54;;;;;;;2.92;2.08;;;;;;;16.99;100.00;100812.72;5008536;28;20030;-66
2022/06/25 00:48:20;;;;;;;3.53;2.00;;;;;;;16.99;100.00;100807.47;5007683;28;20053;-66
2022/06/25 00:50:45;;;;;;;3.40;2.13;;;;;;;16.96;100.00;100810.09;5007989;28;20014;-66
2022/06/25 00:53:11;;;;;;;2.58;2.20;;;;;;;16.92;100.00;100811.81;5008140;28;20021;-66
2022/06/25 00:55:38;;;;;;;2.63;2.40;;;;;;;16.89;100.00;100824.00;5007194;28;20014;-66
2022/06/25 00:58:08;;;;;;;3.72;2.90;;;;;;;16.86;100.00;100816.13;5007968;28;20022;-67
2022/06/25 01:00:34;;;;;;;5.45;2.80;;;;;;;16.84;100.00;100820.50;5008083;28;20114;-66
2022/06/25 01:02:59;;;;;;;6.43;2.53;;;;;;;16.81;100.00;100821.34;5007767;28;20029;-66
2022/06/25 01:05:24;;;;;;;5.65;3.15;;;;;;;16.82;100.00;100823.06;5007832;28;20092;-67
2022/06/25 01:07:50;;;;;;;5.22;2.45;;;;;;;16.77;100.00;100820.44;5008091;28;20452;-66
2022/06/25 01:10:16;;;;;;;4.50;3.20;;;;;;;16.79;100.00;100836.16;5007275;28;20024;-67
2022/06/25 01:12:42;;;;;;;3.40;2.55;;;;;;;16.76;100.00;100829.19;5007966;28;20382;-66
2022/06/25 01:15:18;;;;;;;3.53;3.22;;;;;;;16.72;100.00;100827.38;5007494;28;20022;-66
2022/06/25 01:17:46;;;;;;;3.53;2.72;;;;;;;16.71;100.00;100824.78;5007453;28;20393;-66
2022/06/25 01:20:13;;;;;;;2.85;2.30;;;;;;;16.70;100.00;100829.13;5007654;28;20021;-66
2022/06/25 01:22:38;;;;;;;4.28;2.40;;;;;;;16.70;100.00;100831.72;5007337;28;20344;-66
2022/06/25 01:25:07;;;;;;;2.97;2.40;;;;;;;16.69;100.00;100840.47;5006358;28;20383;-66
2022/06/25 01:27:33;;;;;;;2.78;2.58;;;;;;;16.65;100.00;100849.16;5007467;28;20030;-66
2022/06/25 01:29:59;;;;;;;3.13;2.70;;;;;;;16.63;100.00;100848.25;5007506;28;20480;-66
2022/06/25 01:32:24;;;;;;;5.10;2.60;;;;;;;16.61;100.00;100860.44;5006795;28;20034;-66
2022/06/25 01:34:49;;;;;;;3.30;2.45;;;;;;;16.53;100.00;100852.56;5007061;28;20029;-66
2022/06/25 01:37:14;;;;;;;3.72;2.60;;;;;;;16.53;100.00;100856.03;5006912;28;20397;-66
2022/06/25 01:39:40;;;;;;;2.90;2.60;;;;;;;16.50;100.00;100858.63;5007152;28;20052;-66
2022/06/25 01:42:05;;;;;;;4.57;3.08;;;;;;;16.47;100.00;100863.84;5006642;28;20429;-66
2022/06/25 01:44:35;;;;;;;3.58;3.20;;;;;;;16.46;100.00;100864.69;5007119;28;20119;-66
2022/06/25 01:47:00;;;;;;;4.80;3.42;;;;;;;16.44;100.00;100874.28;5006826;28;20388;-66
2022/06/25 01:49:25;;;;;;;5.13;3.63;;;;;;;16.42;100.00;100876.00;5007050;28;20034;-67
2022/06/25 01:51:51;;;;;;;4.03;3.72;;;;;;;16.42;100.00;100870.78;5007057;28;20025;-66
2022/06/25 01:54:17;;;;;;;5.93;3.45;;;;;;;16.38;100.00;100872.50;5007687;28;20477;-66
2022/06/25 01:56:42;;;;;;;4.72;3.63;;;;;;;16.37;100.00;100875.94;5007350;28;20038;-66
2022/06/25 01:59:07;;;;;;;5.70;3.03;;;;;;;16.37;100.00;100880.31;5006517;28;20026;-66
2022/06/25 02:01:33;;;;;;;4.20;3.80;;;;;;;16.34;100.00;100881.16;5007373;28;20029;-66
2022/06/25 02:03:58;;;;;;;3.10;2.75;;;;;;;16.31;100.00;100884.66;5007030;28;20224;-66
2022/06/25 02:06:24;;;;;;;3.92;2.80;;;;;;;16.31;100.00;100888.97;5006665;28;20520;-66
2022/06/25 02:08:49;;;;;;;4.63;3.63;;;;;;;16.29;100.00;100888.97;5007040;28;20032;-66
2022/06/25 02:11:15;;;;;;;3.60;3.30;;;;;;;16.30;100.00;100898.56;5006258;28;20108;-66
2022/06/25 02:13:40;;;;;;;6.32;3.95;;;;;;;16.28;100.00;100895.06;5006957;28;20018;-66
2022/06/25 02:16:06;;;;;;;5.70;3.78;;;;;;;16.28;100.00;100900.28;5006623;28;20692;-66
2022/06/25 02:18:31;;;;;;;4.85;3.72;;;;;;;16.25;100.00;100899.38;5005834;28;20033;-66
2022/06/25 02:20:57;;;;;;;5.40;3.83;;;;;;;16.24;100.00;100898.53;5006503;28;20324;-66
2022/06/25 02:23:22;;;;;;;6.50;3.10;;;;;;;16.20;100.00;100897.63;5006352;28;20026;-66
2022/06/25 02:25:48;;;;;;;3.53;3.22;;;;;;;16.22;100.00;100902.84;5006885;28;20034;-66
2022/06/25 02:28:15;;;;;;;4.32;2.88;;;;;;;16.19;100.00;100905.44;5006042;28;20037;-66
2022/06/25 02:30:41;;;;;;;4.72;2.72;;;;;;;16.17;100.00;100912.41;5006619;28;20029;-66
2022/06/25 02:33:11;;;;;;;5.80;3.67;;;;;;;16.14;100.00;100912.34;5006840;28;20466;-66
2022/06/25 02:35:41;;;;;;;5.85;3.88;;;;;;;16.10;100.00;100919.28;5006546;28;20025;-66
2022/06/25 02:38:08;;;;;;;5.07;3.22;;;;;;;16.10;100.00;100921.03;5010838;28;20021;-66
2022/06/25 02:40:33;;;;;;;4.43;2.80;;;;;;;16.08;100.00;100918.41;5005967;28;20018;-66
2022/06/25 02:42:58;;;;;;;4.53;2.72;;;;;;;16.07;100.00;100920.13;5006540;28;20438;-66
2022/06/25 02:45:23;;;;;;;3.78;2.53;;;;;;;16.04;100.00;100925.34;5006930;28;20108;-66
2022/06/25 02:47:49;;;;;;;4.53;3.00;;;;;;;16.05;100.00;100926.19;5006228;28;20120;-66
2022/06/25 02:50:14;;;;;;;2.88;2.20;;;;;;;16.04;100.00;100929.69;5006189;28;20025;-66
2022/06/25 02:52:39;;;;;;;5.55;2.40;;;;;;;16.02;100.00;100924.44;5006007;28;20017;-66
2022/06/25 02:55:06;;;;;;;3.70;2.90;;;;;;;16.01;100.00;100933.13;5008848;28;20473;-66
2022/06/25 03:00:15;;;;;;;4.72;2.63;;;;;;;15.98;100.00;100943.50;5014917;28;20037;-66
2022/06/25 03:02:41;;;;;;;3.83;3.15;;;;;;;15.96;100.00;100938.28;5009834;28;20236;-66
2022/06/25 03:05:07;;;;;;;5.82;3.53;;;;;;;15.93;100.00;100939.97;5010237;28;20017;-66
2022/06/25 03:07:32;;;;;;;3.80;3.50;;;;;;;15.91;100.00;100941.69;5009575;28;20474;-67
2022/06/25 03:09:57;;;;;;;3.40;3.10;;;;;;;15.89;100.00;100938.19;5009400;28;20080;-66
2022/06/25 03:12:23;;;;;;;4.68;3.00;;;;;;;15.87;100.00;100935.56;5008068;28;20444;-66
2022/06/25 03:14:48;;;;;;;3.22;2.92;;;;;;;15.87;100.00;100937.28;5007914;28;20016;-66
2022/06/25 03:17:13;;;;;;;4.85;3.47;;;;;;;15.86;100.00;100933.81;5007225;28;20022;-66
2022/06/25 03:19:39;;;;;;;5.32;3.10;;;;;;;15.87;100.00;100939.88;5007740;28;20022;-66
2022/06/25 03:22:04;;;;;;;4.07;2.78;;;;;;;15.87;100.00;100939.88;5007682;28;20022;-66
2022/06/25 03:24:30;;;;;;;5.45;3.20;;;;;;;15.84;100.00;100931.19;5008572;28;20454;-66
2022/06/25 03:26:55;;;;;;;5.32;2.40;;;;;;;15.85;100.00;100942.50;5009503;28;20026;-66
2022/06/25 03:29:21;;;;;;;3.80;2.70;;;;;;;15.84;100.00;100943.34;5009860;28;20629;-66
2022/06/25 03:31:46;;;;;;;5.40;3.00;;;;;;;15.84;100.00;100939.03;5009461;28;20165;-66
2022/06/25 03:34:11;;;;;;;3.05;2.63;;;;;;;15.83;100.00;100942.47;5009720;28;20026;-67
2022/06/25 03:36:37;;;;;;;3.75;2.38;;;;;;;15.85;100.00;100942.50;5009404;28;20466;-66
2022/06/25 03:39:03;;;;;;;3.38;2.70;;;;;;;15.85;100.00;100947.72;5010183;28;20480;-66
2022/06/25 03:41:37;;;;;;;2.83;2.58;;;;;;;15.85;100.00;100943.38;5009822;28;20533;-66
2022/06/25 03:44:09;;;;;;;2.75;2.50;;;;;;;15.85;100.00;100955.56;5008936;28;20616;-66
2022/06/25 03:46:36;;;;;;;4.47;3.03;;;;;;;15.85;100.00;100951.22;5009449;28;20022;-66
2022/06/25 03:49:02;;;;;;;3.00;2.47;;;;;;;15.87;100.00;100952.94;5008611;28;20025;-66
2022/06/25 03:51:28;;;;;;;2.65;2.45;;;;;;;15.90;100.00;100955.63;5009082;28;20025;-66
2022/06/25 03:53:54;;;;;;;3.35;2.70;;;;;;;15.92;100.00;100960.00;5007531;28;20163;-67
2022/06/25 03:56:20;;;;;;;2.80;2.30;;;;;;;15.96;100.00;100955.69;5008785;28;20467;-66
2022/06/25 03:58:46;;;;;;;3.40;3.10;;;;;;;16.00;100.00;100951.41;5008757;28;20029;-65
2022/06/25 04:01:12;;;;;;;3.03;2.63;;;;;;;16.04;100.00;100961.94;5008997;28;20052;-66
2022/06/25 04:03:38;;;;;;;5.85;3.13;;;;;;;16.10;100.00;100957.63;5011437;28;20557;-66
2022/06/25 04:06:03;;;;;;;3.65;3.10;;;;;;;16.15;100.00;100950.69;5008901;28;20083;-66
2022/06/25 04:08:28;;;;;;;3.75;2.78;;;;;;;16.18;100.00;100950.72;5008789;28;20276;-66
2022/06/25 04:10:54;;;;;;;3.25;2.53;;;;;;;16.22;100.00;100952.53;5011450;28;20030;-66
2022/06/25 04:13:19;;;;;;;6.80;2.65;;;;;;;16.26;100.00;100962.13;5008776;28;20386;-66
2022/06/25 04:15:44;;;;;;;2.58;2.38;;;;;;;16.30;100.00;100956.09;5009118;28;20022;-66
2022/06/25 04:18:10;;;;;;;3.90;2.58;;;;;;;16.34;100.00;100962.22;5008352;28;20034;-66
2022/06/25 04:20:35;;;;;;;3.05;2.30;;;;;;;16.37;100.00;100956.16;5007910;28;20033;-66
2022/06/25 04:23:01;;;;;;;2.58;2.33;;;;;;;16.40;100.00;100961.41;5008769;28;20030;-66
2022/06/25 04:25:26;;;;;;;4.03;2.78;;;;;;;16.44;100.00;100958.81;5008421;28;20402;-66
2022/06/25 04:30:36;;;;;;;8.32;2.72;;;;;;;16.50;100.00;100968.47;5008261;28;20052;-66
2022/06/25 04:33:01;;;;;;;2.80;2.55;;;;;;;16.53;100.00;100968.50;5008508;28;20029;-66
2022/06/25 04:35:26;;;;;;;6.20;2.63;;;;;;;16.54;100.00;100969.38;5008666;28;20026;-66
2022/06/25 04:37:52;;;;;;;3.45;2.22;;;;;;;16.56;100.00;100973.78;5008266;28;20482;-66
2022/06/25 04:40:18;;;;;;;5.00;2.30;;;;;;;16.59;100.00;100974.63;5007909;28;20423;-66
2022/06/25 04:42:45;;;;;;;5.75;2.83;;;;;;;16.62;100.00;100977.31;5008303;28;20434;-66
2022/06/25 04:45:10;;;;;;;5.50;2.83;;;;;;;16.65;100.00;100985.19;5007910;28;20030;-66
2022/06/25 04:47:36;;;;;;;2.88;2.45;;;;;;;16.66;100.00;100984.31;5007366;28;20041;-66
2022/06/25 04:50:01;;;;;;;3.92;2.90;;;;;;;16.72;100.00;100989.59;5008462;28;20370;-66
2022/06/25 04:52:26;;;;;;;5.20;2.95;;;;;;;16.82;100.00;100989.69;5008169;28;20028;-66
2022/06/25 04:54:52;;;;;;;3.45;3.13;;;;;;;16.90;100.00;100998.47;5007908;28;20036;-66
2022/06/25 04:57:17;;;;;;;3.50;2.50;;;;;;;16.97;100.00;100995.03;5007342;28;20030;-66
2022/06/25 04:59:42;;;;;;;3.75;2.55;;;;;;;17.05;100.00;100990.72;5007770;28;20017;-66
2022/06/25 05:02:07;;;;;;;4.13;2.45;;;;;;;17.16;100.00;101000.47;5007184;28;20062;-66
2022/06/25 05:04:33;;;;;;;5.65;2.97;;;;;;;17.25;100.00;101010.13;5021631;28;20028;-66
2022/06/25 05:06:58;;;;;;;4.18;2.60;;;;;;;17.31;100.00;100998.78;5007900;28;20037;-66
2022/06/25 05:09:25;;;;;;;5.05;2.42;;;;;;;17.32;100.00;100997.94;5007645;28;20370;-66
2022/06/25 05:11:51;;;;;;;4.82;2.80;;;;;;;17.30;100.00;100997.03;5007827;28;20022;-66
2022/06/25 05:14:16;;;;;;;4.13;2.45;;;;;;;17.27;100.00;101009.25;5007143;28;20029;-66
2022/06/25 05:16:41;;;;;;;3.83;2.95;;;;;;;17.30;100.00;101010.13;5007160;28;20036;-66
2022/06/25 05:19:07;;;;;;;5.95;2.60;;;;;;;17.28;100.00;101011.00;5007151;28;20037;-66
2022/06/25 05:21:32;;;;;;;4.72;2.65;;;;;;;17.28;100.00;101010.13;5008028;28;20037;-67
2022/06/25 05:23:58;;;;;;;4.38;2.63;;;;;;;17.18;100.00;101003.94;5007018;28;20175;-66
2022/06/25 05:26:23;;;;;;;5.05;2.47;;;;;;;17.19;100.00;101010.94;5006954;28;20026;-66
2022/06/25 05:28:49;;;;;;;4.03;2.58;;;;;;;17.18;100.00;101009.16;5007288;28;20030;-66
2022/06/25 05:31:14;;;;;;;2.95;2.30;;;;;;;17.27;100.00;101017.09;5007477;28;20032;-66
2022/06/25 05:33:39;;;;;;;7.85;3.05;;;;;;;17.33;100.00;101012.75;5007278;28;20381;-66
2022/06/25 05:36:05;;;;;;;5.03;2.15;;;;;;;17.36;100.00;101008.44;5006110;28;20030;-66
2022/06/25 05:38:30;;;;;;;2.65;2.20;;;;;;;17.51;100.00;101012.91;5007142;28;20425;-67
2022/06/25 05:40:55;;;;;;;3.55;2.47;;;;;;;17.60;100.00;101021.66;5006837;28;20389;-67
2022/06/25 05:43:22;;;;;;;2.55;2.30;;;;;;;17.66;100.00;101020.81;5006736;28;20462;-66
2022/06/25 05:45:47;;;;;;;3.35;2.15;;;;;;;17.82;100.00;101020.03;5007316;28;20121;-66
2022/06/25 05:48:13;;;;;;;4.03;2.28;;;;;;;18.03;100.00;101022.72;5006739;28;20109;-66
2022/06/25 05:50:38;;;;;;;3.75;2.28;;;;;;;18.17;100.00;101025.47;5016017;28;20037;-67
2022/06/25 05:53:03;;;;;;;4.65;2.40;;;;;;;18.29;100.00;101028.13;5016419;28;20024;-66
2022/06/25 05:55:28;;;;;;;5.40;2.70;;;;;;;18.38;100.00;101029.88;5007074;28;20040;-66
2022/06/25 05:57:54;;;;;;;3.95;2.50;;;;;;;18.44;99.49;101032.50;5006868;28;20025;-66
2022/06/25 06:00:19;;;;;;;2.58;2.05;;;;;;;18.37;99.53;101038.59;5007163;28;20149;-66
2022/06/25 06:02:45;;;;;;;4.13;2.42;;;;;;;18.38;97.38;101040.38;5008502;28;20048;-66
2022/06/25 06:05:11;;;;;;;3.30;2.08;;;;;;;18.35;100.00;101045.59;5006975;28;20153;-66
2022/06/25 06:07:37;;;;;;;3.88;3.00;;;;;;;18.28;98.32;101051.69;5007116;28;20116;-66
2022/06/25 06:10:04;;;;;;;5.38;2.63;;;;;;;18.28;98.40;101051.69;5017820;28;20072;-66
2022/06/25 06:12:29;;;;;;;4.22;2.60;;;;;;;18.29;97.65;101056.06;5007812;28;20316;-66
2022/06/25 06:14:54;;;;;;;3.33;2.30;;;;;;;18.32;98.08;101061.31;5006438;28;20060;-66
2022/06/25 06:17:20;;;;;;;2.90;2.30;;;;;;;18.30;97.95;101056.09;5007261;28;20033;-66
2022/06/25 06:19:45;;;;;;;4.65;2.25;;;;;;;18.36;97.52;101057.84;5006099;28;20474;-66
2022/06/25 06:22:10;;;;;;;5.25;2.30;;;;;;;18.40;97.53;101057.00;5007014;28;20034;-66
2022/06/25 06:24:36;;;;;;;6.63;2.65;;;;;;;18.50;98.88;101062.25;5006645;28;20424;-66
2022/06/25 06:27:01;;;;;;;4.25;2.25;;;;;;;18.53;97.35;101057.03;5017809;28;20156;-66
2022/06/25 06:29:28;;;;;;;4.10;2.40;;;;;;;18.61;97.85;101065.78;5030452;28;20020;-66
2022/06/25 06:31:53;;;;;;;3.15;2.20;;;;;;;18.64;97.09;101063.16;5022340;28;20022;-66
2022/06/25 06:34:19;;;;;;;3.67;2.10;;;;;;;18.70;98.51;101071.06;5027801;28;20025;-66
2022/06/25 06:36:44;;;;;;;3.75;2.13;;;;;;;18.71;95.90;101072.78;5032011;28;20496;-66
2022/06/25 06:39:10;;;;;;;3.45;2.33;;;;;;;18.75;96.55;101067.53;5018470;28;20026;-66
2022/06/25 06:41:35;;;;;;;4.45;2.45;;;;;;;18.70;96.16;101068.44;5031138;28;20083;-66
2022/06/25 06:44:00;;;;;;;5.75;2.22;;;;;;;18.75;97.32;101073.69;5025081;28;20138;-67
2022/06/25 06:46:26;;;;;;;2.20;1.95;;;;;;;18.72;96.09;101071.94;5026508;28;20052;-66
2022/06/25 06:48:51;;;;;;;4.07;2.15;;;;;;;18.64;96.03;101076.28;5015840;28;20033;-66
2022/06/25 06:51:16;;;;;;;3.30;1.88;;;;;;;18.66;97.08;101069.28;5014733;28;20029;-66
2022/06/25 06:53:42;;;;;;;4.38;2.03;;;;;;;18.69;96.95;101066.66;5016342;28;20026;-66
2022/06/25 06:56:07;;;;;;;3.33;2.10;;;;;;;18.62;96.06;101078.00;5022823;28;20040;-66
2022/06/25 06:58:32;;;;;;;3.85;1.80;;;;;;;18.59;96.64;101083.25;5018407;28;20108;-66
2022/06/25 07:00:58;;;;;;;6.05;2.55;;;;;;;18.52;96.13;101077.13;5009196;28;20037;-66
2022/06/25 07:03:23;;;;;;;3.58;2.10;;;;;;;18.54;97.35;101074.50;5008377;28;20030;-66
2022/06/25 07:05:48;;;;;;;4.55;2.50;;;;;;;18.74;97.04;101065.81;5011895;28;20133;-66
2022/06/25 07:08:14;;;;;;;4.00;2.00;;;;;;;19.06;98.85;101072.81;5009213;28;20501;-66
2022/06/25 07:10:39;;;;;;;3.80;1.95;;;;;;;19.44;95.86;101081.59;5007473;28;20038;-66
2022/06/25 07:13:04;;;;;;;3.45;1.75;;;;;;;19.80;94.12;101074.53;5007762;28;20034;-66
2022/06/25 07:15:29;;;;;;;4.30;2.10;;;;;;;20.09;91.74;101082.34;5008751;28;20056;-66
2022/06/25 07:17:55;;;;;;;4.38;2.25;;;;;;;20.24;88.81;101070.88;5010418;28;20473;-66
2022/06/25 07:20:20;;;;;;;2.88;1.90;;;;;;;20.43;85.49;101068.16;5018477;28;20025;-66
2022/06/25 07:22:45;;;;;;;3.83;1.98;;;;;;;20.68;86.07;101075.91;5010320;28;20060;-66
2022/06/25 07:25:11;;;;;;;3.53;2.05;;;;;;;20.61;84.54;101075.94;5009271;28;20478;-65
2022/06/25 07:27:36;;;;;;;3.65;1.55;;;;;;;20.78;86.85;101076.72;5012066;28;20029;-66
2022/06/25 07:30:02;;;;;;;4.82;2.30;;;;;;;20.92;83.50;101084.53;5018593;28;20026;-66
2022/06/25 07:32:28;;;;;;;4.35;1.67;;;;;;;21.04;81.50;101084.44;5006665;28;20029;-66
2022/06/25 07:34:53;;;;;;;4.80;2.53;;;;;;;21.02;81.36;101083.59;5007052;28;20461;-66
2022/06/25 07:37:18;;;;;;;3.28;1.40;;;;;;;21.01;82.80;101081.84;5007336;28;20034;-66
2022/06/25 07:39:44;;;;;;;1.60;1.20;;;;;;;20.90;81.59;101086.28;5012134;28;20017;-65
2022/06/25 07:42:09;;;;;;;2.35;1.42;;;;;;;20.71;83.86;101081.13;5014619;28;20510;-65
2022/06/25 07:44:34;;;;;;;2.42;1.80;;;;;;;20.61;84.69;101086.47;5007763;28;20026;-66
2022/06/25 07:46:59;;;;;;;1.98;1.30;;;;;;;20.51;85.70;101090.91;5007199;28;20044;-65
2022/06/25 07:49:25;;;;;;;2.47;1.30;;;;;;;20.53;84.84;101088.25;5006819;28;20029;-66
2022/06/25 07:51:56;;;;;;;2.80;1.63;;;;;;;20.45;85.21;101093.59;5006883;28;20026;-65
2022/06/25 07:54:25;;;;;;;2.63;1.60;;;;;;;20.46;85.63;101091.81;5019366;28;20474;-65
2022/06/25 07:56:51;;;;;;;3.22;1.45;;;;;;;20.54;84.03;101084.78;5008577;28;20021;-65
2022/06/25 07:59:16;;;;;;;3.63;1.23;;;;;;;20.71;86.64;101089.03;5020143;28;20033;-66
2022/06/25 08:01:42;;;;;;;3.28;1.55;;;;;;;20.72;84.24;101078.47;5009267;28;20532;-66
2022/06/25 08:04:07;;;;;;;3.30;1.50;;;;;;;20.67;83.94;101087.31;5008071;28;20026;-65
2022/06/25 08:06:34;;;;;;;2.03;1.40;;;;;;;20.63;84.96;101095.22;5027048;28;20029;-66
2022/06/25 08:09:01;;;;;;;2.05;1.50;;;;;;;20.66;85.59;101091.69;5028297;28;20017;-66
2022/06/25 08:11:27;;;;;;;3.53;1.30;;;;;;;20.60;85.52;101089.09;5028265;28;20444;-65
2022/06/25 08:13:52;;;;;;;2.17;1.17;;;;;;;20.57;85.03;101087.38;5028260;28;20014;-66
2022/06/25 08:16:18;;;;;;;4.15;1.40;;;;;;;20.57;85.32;101092.63;5027676;28;20148;-66
2022/06/25 08:18:43;;;;;;;3.05;1.00;;;;;;;20.31;84.55;101084.88;5028569;28;20021;-65
2022/06/25 08:21:08;;;;;;;1.63;1.10;;;;;;;20.12;83.51;101091.09;5027997;28;20025;-66
2022/06/25 08:23:34;;;;;;;2.97;1.00;;;;;;;19.99;85.63;101091.97;4990837;28;1057770;-66
2022/06/25 08:25:59;;;;;;;3.90;1.10;;;;;;;19.92;86.36;101099.91;5028466;28;20087;-65
2022/06/25 08:28:24;;;;;;;3.22;1.10;;;;;;;19.78;86.16;101104.31;5029428;28;20495;-65
2022/06/25 08:30:50;;;;;;;3.22;1.10;;;;;;;19.79;87.55;101106.94;5028859;28;20023;-65
2022/06/25 08:33:15;;;;;;;3.90;1.30;;;;;;;19.81;87.40;101104.31;5029220;28;20048;-66
2022/06/25 08:35:41;;;;;;;1.83;1.00;;;;;;;19.89;87.60;101099.91;5028736;28;20017;-65
2022/06/25 08:38:06;;;;;;;1.45;1.13;;;;;;;19.95;86.96;101101.63;5028928;28;20141;-66
2022/06/25 08:40:32;;;;;;;3.47;1.83;;;;;;;20.10;87.98;101090.22;5028060;28;20175;-65
2022/06/25 08:42:58;;;;;;;3.72;1.27;;;;;;;20.28;86.56;101098.91;5028670;28;20672;-65
2022/06/25 08:45:23;;;;;;;3.60;1.55;;;;;;;20.30;83.24;101099.78;5028430;28;20029;-65
2022/06/25 08:47:50;;;;;;;2.30;1.27;;;;;;;20.50;86.17;101098.81;5028335;28;20075;-65
2022/06/25 08:50:20;;;;;;;4.93;1.27;;;;;;;20.71;85.24;101096.94;5028335;28;20484;-65
2022/06/25 08:52:51;;;;;;;2.03;0.95;;;;;;;20.95;85.62;101092.41;5028412;28;20112;-65
2022/06/25 08:55:33;;;;;;;2.60;1.10;;;;;;;21.39;86.22;101099.97;5027607;28;20025;-65
2022/06/25 08:58:00;;;;;;;1.77;0.93;;;;;;;21.55;82.07;101096.28;5020328;28;20128;-65
2022/06/25 09:00:27;;;;;;;3.28;1.50;;;;;;;21.59;80.65;101103.28;5023161;28;20091;-65
2022/06/25 09:02:52;;;;;;;2.83;1.10;;;;;;;21.48;81.15;101102.50;5024851;28;20064;-66
2022/06/25 09:05:32;;;;;;;2.67;1.30;;;;;;;21.37;81.14;101101.75;5017003;28;20480;-66
2022/06/25 09:07:59;;;;;;;2.80;1.38;;;;;;;21.24;81.33;101107.13;5027692;28;20033;-65
2022/06/25 09:10:26;;;;;;;2.22;1.20;;;;;;;21.14;82.80;101105.47;5028168;28;20025;-65
2022/06/25 09:12:54;;;;;;;4.05;1.50;;;;;;;21.09;82.88;101103.72;5027631;28;20033;-66
2022/06/25 09:15:21;;;;;;;2.35;1.30;;;;;;;20.98;83.27;101101.16;5028190;28;20108;-66
2022/06/25 09:17:49;;;;;;;3.20;1.33;;;;;;;21.05;84.59;101107.25;5028242;28;20032;-65
2022/06/25 09:20:14;;;;;;;2.22;1.17;;;;;;;21.03;81.26;101101.13;5027927;28;20071;-66
2022/06/25 09:22:51;;;;;;;2.95;1.20;;;;;;;21.15;83.25;101107.19;5027617;28;20570;-66
2022/06/25 09:25:23;;;;;;;1.42;1.10;;;;;;;21.26;82.25;101100.09;5027523;28;20045;-66
2022/06/25 09:27:48;;;;;;;4.13;1.70;;;;;;;21.21;79.21;101099.22;5027602;28;20095;-66
2022/06/25 09:30:16;;;;;;;2.67;1.10;;;;;;;21.03;79.78;101101.13;5026961;28;20056;-65
2022/06/25 09:33:01;;;;;;;1.20;1.00;;;;;;;21.02;83.12;101096.75;5027823;28;20204;-66
2022/06/25 09:35:41;;;;;;;3.90;1.20;;;;;;;21.01;81.50;101094.13;5027428;28;20463;-66
2022/06/25 09:38:09;;;;;;;2.42;1.45;;;;;;;21.01;82.42;101100.28;5028058;28;20032;-66
2022/06/25 09:40:36;;;;;;;4.13;1.15;;;;;;;20.93;80.72;101102.06;5026908;28;20021;-66
2022/06/25 09:43:14;;;;;;;2.53;1.27;;;;;;;20.91;81.51;101098.56;5028328;28;20485;-65
2022/06/25 09:45:42;;;;;;;3.60;1.33;;;;;;;21.03;82.29;101098.50;5027386;28;20029;-65
2022/06/25 09:48:10;;;;;;;2.95;1.38;;;;;;;21.11;81.10;101096.69;5027645;28;20052;-65
2022/06/25 09:50:35;;;;;;;1.23;1.00;;;;;;;21.04;79.27;101099.38;5027417;28;20022;-66
2022/06/25 09:53:01;;;;;;;1.95;1.10;;;;;;;21.09;79.78;101106.38;5027380;28;20025;-66
2022/06/25 09:55:29;;;;;;;2.20;1.08;;;;;;;21.09;78.69;101095.81;5027030;28;20032;-65
2022/06/25 09:57:55;;;;;;;2.17;1.30;;;;;;;21.13;78.86;101103.69;5027449;28;20022;-65
2022/06/25 10:00:22;;;;;;;1.10;0.93;;;;;;;21.25;80.25;101108.84;5027182;28;20018;-66
2022/06/25 10:02:49;;;;;;;2.17;1.08;;;;;;;21.31;80.46;101118.47;5025433;28;20054;-65
2022/06/25 10:05:20;;;;;;;2.65;1.17;;;;;;;21.35;79.12;101115.78;5015061;28;20460;-65
2022/06/25 10:07:59;;;;;;;1.65;1.08;;;;;;;21.51;78.82;101109.53;5026278;28;20548;-65
2022/06/25 10:10:28;;;;;;;2.65;1.35;;;;;;;21.52;78.43;101112.13;5016236;28;20028;-66
2022/06/25 10:12:54;;;;;;;1.35;1.10;;;;;;;21.63;76.14;101108.50;5026739;28;20039;-65
2022/06/25 10:15:21;;;;;;;1.45;1.05;;;;;;;21.59;76.49;101107.66;5027123;28;20377;-65
2022/06/25 10:17:48;;;;;;;2.95;1.20;;;;;;;21.73;76.63;101104.03;5027193;28;20021;-65
2022/06/25 10:20:16;;;;;;;2.40;0.90;;;;;;;21.80;76.14;101109.25;5027114;28;20555;-66
2022/06/25 10:22:43;;;;;;;2.30;0.90;;;;;;;21.85;73.42;101103.06;5026740;28;20072;-66
2022/06/25 10:25:14;;;;;;;1.20;0.77;;;;;;;22.15;74.45;101112.38;5026787;28;20120;-66
2022/06/25 10:27:47;;;;;;;2.40;0.82;;;;;;;22.33;73.49;101106.88;5027482;28;20029;-65
2022/06/25 10:30:14;;;;;;;3.83;1.42;;;;;;;22.47;72.58;101102.28;5021437;28;20478;-66
2022/06/25 10:32:51;;;;;;;1.80;0.70;;;;;;;22.42;71.16;101096.19;5019226;28;20276;-66
2022/06/25 10:35:27;;;;;;;2.10;0.90;;;;;;;22.23;70.25;101096.47;5026870;28;20071;-66
2022/06/25 10:38:13;;;;;;;2.33;0.60;;;;;;;22.45;72.03;101098.78;5027162;28;20362;-65
2022/06/25 10:40:48;;;;;;;1.70;0.80;;;;;;;22.61;70.08;101095.94;5027008;28;20025;-65
2022/06/25 10:43:51;;;;;;;1.55;0.70;;;;;;;23.03;71.48;101090.91;5026201;28;20041;-65
2022/06/25 10:46:42;;;;;;;3.22;0.75;;;;;;;23.45;68.28;101084.09;5026782;28;20088;-65
2022/06/25 10:49:30;;;;;;;2.17;0.63;;;;;;;23.46;65.35;101093.75;5027050;28;20113;-65
2022/06/25 10:51:55;;;;;;;1.98;0.90;;;;;;;23.36;65.04;101097.44;5026803;28;20042;-65
2022/06/25 10:54:26;;;;;;;2.60;0.60;;;;;;;23.52;64.82;101098.06;5026876;28;20064;-66
2022/06/25 10:56:54;;;;;;;1.65;0.60;;;;;;;23.31;64.42;101089.59;5026452;28;20219;-66
2022/06/25 10:59:33;;;;;;;0.50;0.50;;;;;;;23.66;64.64;101084.56;5027080;28;20068;-66
2022/06/25 11:02:00;;;;;;;2.75;0.57;;;;;;;23.74;62.33;101087.97;5026776;28;20040;-66
2022/06/25 11:04:30;;;;;;;1.95;0.50;;;;;;;23.85;61.36;101086.88;5026640;28;20029;-66
2022/06/25 11:07:20;;;;;;;0.50;0.50;;;;;;;24.03;61.80;101082.97;5027001;28;20040;-66
2022/06/25 11:09:57;;;;;;;2.60;1.10;;;;;;;23.95;61.06;101080.47;5027139;28;20384;-66
2022/06/25 11:12:24;;;;;;;1.25;0.50;;;;;;;24.15;61.37;101087.13;5026882;28;20073;-66
2022/06/25 11:15:01;;;;;;;0.75;0.70;;;;;;;24.21;62.12;101076.44;5026312;28;20399;-66
2022/06/25 11:17:27;;;;;;;0.85;0.40;;;;;;;23.90;60.47;101073.53;5027635;28;20021;-66
2022/06/25 11:19:52;;;;;;;1.40;0.80;;;;;;;23.66;61.49;101074.00;5029821;28;20075;-66
2022/06/25 11:22:17;;;;;;;1.25;0.70;;;;;;;23.61;62.52;101075.84;5030360;28;20466;-66
2022/06/25 11:30:13;;;;;;;0.40;0.40;;;;;;;24.03;60.01;101087.38;5029747;28;20064;-66
2022/06/25 11:32:43;;;;;;;1.50;0.65;;;;;;;24.28;61.39;101081.59;5030606;28;20024;-66
2022/06/25 11:35:09;;;;;;;1.45;0.50;;;;;;;24.36;57.65;101081.44;5029635;28;20021;-66